Time;durP1;ratioP1;P1;durP2;ratioP2;P2;SDS_P1;SDS_P2;PMS_P1;PMS_P2;Temp;Humidity;BMP_temperature;BMP_pressure;BME280_temperature;BME280_humidity;BME280_pressure;Samples;Min_cycle;Max_cycle;Signal;HPM_P1;HPM_P2
2023/05/13 00:00:21;;;;;;;14.63;4.68;;;;;;;13.32;48.71;101711.47;5052533;28;20078;-54
2023/05/13 00:02:47;;;;;;;11.77;3.90;;;;;;;13.30;48.57;101712.44;5052062;28;20353;-55
2023/05/13 00:05:12;;;;;;;7.18;4.15;;;;;;;13.24;49.05;101713.56;5051270;28;20057;-54
2023/05/13 00:07:37;;;;;;;7.43;4.75;;;;;;;13.21;49.37;101708.38;5050545;28;20041;-55
2023/05/13 00:10:03;;;;;;;10.90;4.72;;;;;;;13.18;49.67;101713.81;5052376;28;20032;-55
2023/05/13 00:12:30;;;;;;;12.80;4.50;;;;;;;13.08;49.73;101707.13;5052014;28;20031;-55
2023/05/13 00:14:55;;;;;;;9.02;5.10;;;;;;;13.11;49.85;101699.03;5051352;28;20039;-53
2023/05/13 00:17:20;;;;;;;10.63;5.00;;;;;;;13.04;50.01;101701.09;5052044;28;20035;-54
2023/05/13 00:19:46;;;;;;;11.38;5.05;;;;;;;12.99;50.31;101706.56;5052099;28;20036;-54
2023/05/13 00:22:11;;;;;;;13.45;4.57;;;;;;;12.91;50.38;101715.78;5051892;28;20036;-55
2023/05/13 00:24:37;;;;;;;10.60;4.68;;;;;;;12.90;50.58;101709.63;5050964;28;20392;-53
2023/05/13 00:27:02;;;;;;;8.60;4.45;;;;;;;12.88;50.60;101715.91;5050828;28;20025;-55
2023/05/13 00:29:28;;;;;;;13.00;4.25;;;;;;;12.78;50.87;101710.09;5051608;28;20017;-53
2023/05/13 00:31:53;;;;;;;9.68;4.03;;;;;;;12.84;50.97;101712.50;5046948;28;20021;-53
2023/05/13 00:34:19;;;;;;;7.45;3.97;;;;;;;12.78;50.92;101720.72;5044632;28;20087;-55
2023/05/13 00:36:44;;;;;;;8.23;4.63;;;;;;;12.73;51.37;101717.38;5043664;28;20024;-53
2023/05/13 00:39:10;;;;;;;7.53;4.50;;;;;;;12.62;52.14;101720.44;5047318;28;20032;-53
2023/05/13 00:41:36;;;;;;;17.17;4.97;;;;;;;12.54;52.30;101722.53;5050760;28;20089;-55
2023/05/13 00:44:01;;;;;;;9.60;4.28;;;;;;;12.49;52.59;101714.78;5060315;28;20199;-55
2023/05/13 00:46:31;;;;;;;11.77;4.85;;;;;;;12.51;52.02;101722.66;5064058;28;20028;-53
2023/05/13 00:48:58;;;;;;;12.55;4.60;;;;;;;12.43;52.58;101721.16;5049625;28;20059;-53
2023/05/13 00:51:23;;;;;;;7.82;4.55;;;;;;;12.42;52.55;101713.25;5054082;28;20056;-55
2023/05/13 00:53:49;;;;;;;8.13;5.00;;;;;;;12.41;52.26;101716.84;5052020;28;20326;-53
2023/05/13 00:56:18;;;;;;;6.15;3.97;;;;;;;12.35;52.13;101719.72;5054392;28;20060;-54
2023/05/13 00:58:44;;;;;;;18.20;5.15;;;;;;;12.38;52.39;101716.97;5055450;28;20025;-53
2023/05/13 01:01:19;;;;;;;6.30;3.95;;;;;;;12.27;52.91;101720.84;5054210;28;20364;-53
2023/05/13 01:03:49;;;;;;;19.55;7.28;;;;;;;12.25;53.05;101725.38;5044682;28;20043;-53
2023/05/13 01:06:57;;;;;;;7.45;4.28;;;;;;;12.36;52.46;101734.69;5044107;28;20034;-55
2023/05/13 01:09:33;;;;;;;8.40;4.82;;;;;;;12.27;53.03;101731.47;5044414;28;20076;-53
2023/05/13 01:12:07;;;;;;;5.65;3.97;;;;;;;12.26;53.04;101726.22;5048130;28;20504;-53
2023/05/13 01:14:39;;;;;;;7.13;4.28;;;;;;;12.30;52.78;101730.50;5036133;28;20044;-53
2023/05/13 01:17:16;;;;;;;16.00;4.40;;;;;;;12.26;52.93;101737.72;5046744;28;20039;-53
2023/05/13 01:19:57;;;;;;;11.32;4.65;;;;;;;12.22;52.99;101736.06;5046801;28;20033;-54
2023/05/13 01:22:22;;;;;;;9.02;4.75;;;;;;;12.15;53.78;101737.22;5055569;28;20033;-53
2023/05/13 01:24:49;;;;;;;10.27;4.97;;;;;;;12.18;53.37;101736.25;5051297;28;20040;-53
2023/05/13 01:27:15;;;;;;;5.40;4.65;;;;;;;12.18;53.25;101747.72;5054962;28;20413;-56
2023/05/13 01:29:41;;;;;;;10.65;4.43;;;;;;;12.19;52.97;101751.22;5053560;28;20029;-53
2023/05/13 01:32:08;;;;;;;11.25;4.35;;;;;;;12.17;53.22;101751.28;5050151;28;20457;-53
2023/05/13 01:34:35;;;;;;;9.07;4.70;;;;;;;12.17;53.37;101745.97;5055463;28;20036;-53
2023/05/13 01:37:00;;;;;;;7.53;4.50;;;;;;;12.17;53.21;101740.69;5054507;28;20032;-53
2023/05/13 01:39:27;;;;;;;8.13;5.05;;;;;;;12.21;53.34;101747.63;5055644;28;20080;-53
2023/05/13 01:41:52;;;;;;;12.32;5.57;;;;;;;12.19;53.35;101749.44;5055531;28;20659;-53
2023/05/13 01:44:18;;;;;;;9.60;4.53;;;;;;;12.17;53.68;101745.13;5055737;28;20100;-53
2023/05/13 01:46:44;;;;;;;6.35;4.72;;;;;;;12.14;53.41;101748.75;5054581;28;20032;-54
2023/05/13 01:49:09;;;;;;;10.70;4.57;;;;;;;12.16;53.76;101754.00;5055639;28;20609;-53
2023/05/13 01:51:39;;;;;;;8.45;4.40;;;;;;;12.19;52.83;101754.75;5054688;28;20033;-53
2023/05/13 01:54:04;;;;;;;10.23;5.13;;;;;;;12.24;53.00;101760.75;5055280;28;20433;-54
2023/05/13 01:56:30;;;;;;;15.65;5.00;;;;;;;12.21;52.98;101754.69;5053890;28;20048;-54
2023/05/13 01:58:55;;;;;;;10.65;4.53;;;;;;;12.19;53.09;101749.44;5054832;28;20032;-54
2023/05/13 02:01:20;;;;;;;9.18;4.60;;;;;;;12.09;53.40;101753.34;5054098;28;20044;-54
2023/05/13 02:03:46;;;;;;;7.70;4.47;;;;;;;12.07;53.31;101760.50;5051301;28;20064;-53
2023/05/13 02:06:11;;;;;;;15.73;5.72;;;;;;;12.08;53.51;101751.59;5045558;28;20380;-53
2023/05/13 02:08:37;;;;;;;13.18;4.22;;;;;;;12.14;53.07;101758.50;5054829;28;20028;-54
2023/05/13 02:11:02;;;;;;;11.70;4.35;;;;;;;12.10;53.31;101755.09;5050183;28;20056;-54
2023/05/13 02:13:28;;;;;;;10.45;5.20;;;;;;;12.02;53.23;101751.84;5048908;28;20364;-53
2023/05/13 02:15:54;;;;;;;21.73;4.65;;;;;;;11.95;53.65;101756.50;5045545;28;20116;-54
2023/05/13 02:18:21;;;;;;;7.30;4.25;;;;;;;11.91;53.84;101754.84;5046292;28;20041;-55
2023/05/13 02:20:47;;;;;;;9.25;4.88;;;;;;;11.81;54.53;101758.72;5047859;28;20051;-54
2023/05/13 02:23:13;;;;;;;7.00;4.40;;;;;;;11.74;54.61;101763.38;5044653;28;20061;-54
2023/05/13 02:25:40;;;;;;;10.18;5.63;;;;;;;11.73;55.01;101761.66;5045760;28;20024;-54
2023/05/13 02:28:05;;;;;;;6.82;5.10;;;;;;;11.65;55.02;101759.25;5043526;28;20029;-54
2023/05/13 02:30:30;;;;;;;7.47;4.82;;;;;;;11.71;54.06;101763.47;5048739;28;20048;-54
2023/05/13 02:32:56;;;;;;;9.55;4.10;;;;;;;11.84;54.17;101764.78;5044083;28;20033;-54
2023/05/13 02:35:23;;;;;;;6.65;4.90;;;;;;;11.90;53.93;101769.88;5046910;28;20032;-54
2023/05/13 02:37:48;;;;;;;17.10;5.78;;;;;;;11.98;53.89;101771.41;5052251;28;20075;-53
2023/05/13 02:40:14;;;;;;;22.23;5.97;;;;;;;12.09;53.61;101770.09;5047749;28;20072;-53
2023/05/13 02:42:39;;;;;;;9.43;4.63;;;;;;;12.08;53.29;101767.50;5053662;28;20017;-53
2023/05/13 02:45:05;;;;;;;12.55;5.57;;;;;;;12.15;53.05;101766.38;5052524;28;20068;-54
2023/05/13 02:47:31;;;;;;;11.45;5.10;;;;;;;12.12;53.36;101763.84;5053324;28;20421;-54
2023/05/13 02:49:56;;;;;;;10.13;5.10;;;;;;;12.03;53.46;101769.47;5046551;28;20051;-54
2023/05/13 02:52:22;;;;;;;11.48;5.15;;;;;;;11.98;53.51;101771.41;5044929;28;20032;-54
2023/05/13 02:54:47;;;;;;;17.65;4.85;;;;;;;12.00;53.19;101764.25;5034419;28;20029;-54
2023/05/13 02:57:13;;;;;;;13.90;5.10;;;;;;;11.92;53.66;101767.22;5033875;28;20457;-54
2023/05/13 02:59:38;;;;;;;9.70;4.90;;;;;;;11.86;54.36;101767.38;5043609;28;20082;-54
2023/05/13 03:02:04;;;;;;;6.95;5.00;;;;;;;11.88;53.68;101771.72;5036071;28;20037;-55
2023/05/13 03:04:29;;;;;;;9.85;5.45;;;;;;;11.87;53.89;101775.28;5037479;28;20052;-54
2023/05/13 03:06:55;;;;;;;9.88;4.97;;;;;;;11.93;53.76;101774.22;5044666;28;20054;-54
2023/05/13 03:09:20;;;;;;;9.05;5.72;;;;;;;12.03;53.42;101770.34;5048689;28;20506;-54
2023/05/13 03:11:46;;;;;;;7.80;4.97;;;;;;;12.08;53.35;101773.69;5045896;28;20033;-55
2023/05/13 03:14:11;;;;;;;16.85;5.68;;;;;;;12.13;53.21;101770.88;5052643;28;20025;-54
2023/05/13 03:16:36;;;;;;;9.07;5.80;;;;;;;12.13;52.82;101773.53;5053089;28;20029;-54
2023/05/13 03:19:02;;;;;;;15.50;5.95;;;;;;;12.10;52.20;101771.00;5052636;28;20530;-54
2023/05/13 03:21:27;;;;;;;11.00;6.55;;;;;;;12.10;52.60;101776.28;5051862;28;20021;-54
2023/05/13 03:23:53;;;;;;;11.52;5.32;;;;;;;12.03;53.56;101769.47;5048654;28;20029;-54
2023/05/13 03:26:18;;;;;;;15.25;5.85;;;;;;;11.92;53.40;101781.31;5052097;28;20025;-54
2023/05/13 03:28:44;;;;;;;8.05;5.25;;;;;;;11.85;53.26;101779.78;5045267;28;20112;-55
2023/05/13 03:31:09;;;;;;;8.73;5.90;;;;;;;11.77;53.31;101779.19;5051963;28;20028;-54
2023/05/13 03:33:35;;;;;;;13.02;5.47;;;;;;;11.78;53.69;101786.19;5051919;28;20040;-54
2023/05/13 03:36:00;;;;;;;13.30;5.25;;;;;;;11.69;53.68;101786.50;5053205;28;20620;-54
2023/05/13 03:38:26;;;;;;;12.90;4.60;;;;;;;11.63;54.03;101786.72;5053369;28;20031;-54
2023/05/13 03:40:51;;;;;;;8.68;5.07;;;;;;;11.61;53.77;101793.84;5053056;28;20017;-54
2023/05/13 03:43:16;;;;;;;7.47;5.53;;;;;;;11.73;53.57;101782.81;5052900;28;20449;-54
2023/05/13 03:45:46;;;;;;;11.40;5.10;;;;;;;11.79;53.24;101789.72;5053176;28;20039;-54
2023/05/13 03:48:11;;;;;;;8.95;4.75;;;;;;;11.87;53.11;101791.19;5053538;28;20068;-54
2023/05/13 03:50:37;;;;;;;10.38;5.28;;;;;;;11.80;52.91;101797.59;5053441;28;20053;-54
2023/05/13 03:53:03;;;;;;;10.90;5.60;;;;;;;11.86;52.72;101794.72;5053194;28;20116;-54
2023/05/13 03:55:28;;;;;;;11.60;5.15;;;;;;;11.83;53.34;101794.84;5052697;28;20501;-54
2023/05/13 03:57:53;;;;;;;9.85;5.18;;;;;;;11.83;53.34;101794.84;5053217;28;20114;-54
2023/05/13 04:00:19;;;;;;;10.95;5.93;;;;;;;11.82;53.06;101798.41;5053360;28;20016;-54
2023/05/13 04:02:44;;;;;;;14.80;5.13;;;;;;;11.77;53.38;101800.38;5052414;28;20609;-54
2023/05/13 04:05:12;;;;;;;9.15;5.10;;;;;;;11.70;53.57;101809.41;5053060;28;20021;-54
2023/05/13 04:07:37;;;;;;;12.20;5.32;;;;;;;11.74;53.60;101811.06;5053522;28;20159;-54
2023/05/13 04:10:03;;;;;;;9.68;4.78;;;;;;;11.69;54.02;101807.69;5051911;28;20115;-55
2023/05/13 04:12:29;;;;;;;9.48;5.47;;;;;;;11.69;53.85;101807.69;5053301;28;20078;-53
2023/05/13 04:14:55;;;;;;;8.65;5.53;;;;;;;11.60;54.30;101810.66;5052846;28;20029;-55
2023/05/13 04:17:20;;;;;;;10.05;5.07;;;;;;;11.70;53.73;101820.00;5053076;28;20044;-55
2023/05/13 04:19:45;;;;;;;9.45;6.15;;;;;;;11.73;53.61;101815.47;5052204;28;20021;-55
2023/05/13 04:22:11;;;;;;;12.20;5.60;;;;;;;11.74;53.12;101816.34;5052884;28;20036;-55
2023/05/13 04:24:36;;;;;;;13.85;4.88;;;;;;;11.86;52.97;101826.53;5053141;28;20498;-55
2023/05/13 04:27:02;;;;;;;13.30;5.72;;;;;;;11.84;53.33;101828.38;5056874;28;20029;-55
2023/05/13 04:29:27;;;;;;;18.08;5.43;;;;;;;11.85;52.91;101832.75;5056218;28;20072;-55
2023/05/13 04:31:52;;;;;;;11.85;5.75;;;;;;;11.88;52.86;101826.47;5058621;28;20120;-55
2023/05/13 04:34:18;;;;;;;12.05;5.38;;;;;;;12.02;52.32;101831.34;5063575;28;20043;-55
2023/05/13 04:36:45;;;;;;;14.23;5.68;;;;;;;12.06;52.24;101833.84;5055986;28;20040;-56
2023/05/13 04:39:10;;;;;;;9.82;5.25;;;;;;;12.05;52.48;101845.34;5056592;28;20360;-53
2023/05/13 04:41:36;;;;;;;10.52;4.93;;;;;;;12.21;51.67;101840.38;5056588;28;20020;-53
2023/05/13 04:44:01;;;;;;;9.35;5.32;;;;;;;12.28;51.53;101841.88;5056727;28;20118;-53
2023/05/13 04:46:26;;;;;;;10.45;4.97;;;;;;;12.32;51.20;101844.44;5055462;28;20344;-53
2023/05/13 04:48:52;;;;;;;18.15;5.93;;;;;;;12.38;51.10;101841.56;5056398;28;20056;-53
2023/05/13 04:51:17;;;;;;;9.23;5.05;;;;;;;12.40;51.21;101842.38;5056434;28;20033;-53
2023/05/13 04:53:42;;;;;;;12.48;5.28;;;;;;;12.45;50.82;101846.56;5056312;28;20028;-53
2023/05/13 04:56:08;;;;;;;9.55;5.57;;;;;;;12.41;50.98;101849.41;5054502;28;20032;-53
2023/05/13 04:58:33;;;;;;;9.73;5.10;;;;;;;12.46;50.51;101853.63;5056200;28;20072;-53
2023/05/13 05:00:59;;;;;;;9.55;4.93;;;;;;;12.46;50.79;101858.06;5055649;28;20039;-54
2023/05/13 05:03:24;;;;;;;7.82;4.47;;;;;;;12.56;49.90;101856.81;5055867;28;20500;-53
2023/05/13 05:05:50;;;;;;;16.88;5.45;;;;;;;12.54;50.06;101861.31;5053947;28;20047;-53
2023/05/13 05:08:15;;;;;;;9.35;5.15;;;;;;;12.61;49.79;101862.81;5044861;28;20117;-53
2023/05/13 05:10:41;;;;;;;13.93;5.30;;;;;;;12.64;49.13;101857.41;5042690;28;20052;-53
2023/05/13 05:13:08;;;;;;;11.48;4.95;;;;;;;12.64;49.64;101868.00;5049173;28;20099;-54
2023/05/13 05:15:33;;;;;;;12.25;5.18;;;;;;;12.72;49.35;101864.19;5055128;28;20051;-53
2023/05/13 05:17:59;;;;;;;22.27;4.95;;;;;;;12.77;49.04;101857.81;5051542;28;20033;-54
2023/05/13 05:20:24;;;;;;;10.68;4.20;;;;;;;12.86;48.66;101861.91;5053349;28;20107;-53
2023/05/13 05:22:49;;;;;;;13.55;6.07;;;;;;;12.94;48.71;101864.28;5053804;28;20128;-53
2023/05/13 05:25:15;;;;;;;10.77;5.40;;;;;;;12.93;48.37;101863.41;5055229;28;20027;-53
2023/05/13 05:27:40;;;;;;;10.82;5.13;;;;;;;12.95;48.84;101866.00;5055600;28;20025;-54
2023/05/13 05:30:07;;;;;;;11.43;4.80;;;;;;;13.06;48.26;101868.22;5049389;28;20095;-54
2023/05/13 05:32:33;;;;;;;11.20;5.70;;;;;;;13.06;47.97;101874.44;5051000;28;20020;-54
2023/05/13 05:35:01;;;;;;;9.35;5.15;;;;;;;13.12;48.45;101879.47;5046804;28;20116;-54
2023/05/13 05:37:27;;;;;;;9.13;4.78;;;;;;;13.14;48.05;101871.47;5040043;28;20021;-54
2023/05/13 05:39:52;;;;;;;9.18;4.65;;;;;;;13.24;47.74;101883.47;5048622;28;20044;-55
2023/05/13 05:42:18;;;;;;;6.97;4.72;;;;;;;13.29;47.66;101886.81;5047159;28;20365;-53
2023/05/13 05:44:43;;;;;;;8.65;5.45;;;;;;;13.33;47.62;101883.13;5036197;28;20052;-55
2023/05/13 05:47:09;;;;;;;19.00;5.70;;;;;;;13.36;47.29;101880.34;5043544;28;20107;-55
2023/05/13 05:49:34;;;;;;;9.10;4.72;;;;;;;13.57;46.57;101883.09;5048349;28;20531;-53
2023/05/13 05:52:00;;;;;;;11.05;4.90;;;;;;;13.62;46.68;101885.53;5046645;28;20036;-54
2023/05/13 05:54:25;;;;;;;11.75;4.82;;;;;;;13.66;47.17;101879.19;5043596;28;20057;-53
2023/05/13 05:56:50;;;;;;;10.32;4.43;;;;;;;13.83;46.50;101889.13;5047088;28;20053;-53
2023/05/13 05:59:16;;;;;;;8.20;4.32;;;;;;;13.91;45.64;101879.03;5047581;28;20468;-53
2023/05/13 06:01:41;;;;;;;6.25;4.13;;;;;;;13.96;46.47;101879.72;5044583;28;20048;-55
2023/05/13 06:04:06;;;;;;;7.00;4.63;;;;;;;14.07;45.57;101885.44;5048438;28;20029;-53
2023/05/13 06:06:32;;;;;;;11.20;4.07;;;;;;;14.11;46.00;101880.88;5039701;28;20025;-55
2023/05/13 06:08:58;;;;;;;7.03;4.53;;;;;;;14.27;44.32;101886.38;5047343;28;20021;-53
2023/05/13 06:11:23;;;;;;;35.22;15.45;;;;;;;14.36;44.38;101885.13;5052653;28;20120;-53
2023/05/13 06:13:50;;;;;;;8.32;4.55;;;;;;;14.46;44.51;101881.13;5054208;28;20024;-53
2023/05/13 06:16:15;;;;;;;17.05;4.60;;;;;;;14.50;44.07;101872.09;5050281;28;20399;-55
2023/05/13 06:18:41;;;;;;;8.80;4.30;;;;;;;14.76;43.74;101878.94;5055245;28;20033;-54
2023/05/13 06:21:07;;;;;;;6.75;4.28;;;;;;;14.78;44.54;101877.06;5054102;28;20243;-53
2023/05/13 06:23:32;;;;;;;16.52;4.35;;;;;;;14.90;44.16;101869.47;5054784;28;20028;-53
2023/05/13 06:25:58;;;;;;;9.20;4.03;;;;;;;15.02;42.93;101874.19;5054030;28;20057;-53
2023/05/13 06:28:24;;;;;;;8.43;4.35;;;;;;;15.15;41.92;101879.81;5052553;28;20039;-53
2023/05/13 06:30:49;;;;;;;8.52;4.25;;;;;;;15.32;41.79;101871.06;5054523;28;20029;-53
2023/05/13 06:33:15;;;;;;;10.02;4.53;;;;;;;15.44;41.98;101874.91;5053607;28;20057;-53
2023/05/13 06:35:40;;;;;;;10.75;4.07;;;;;;;15.55;41.07;101873.44;5053525;28;20029;-53
2023/05/13 06:38:06;;;;;;;11.70;4.35;;;;;;;15.73;40.80;101886.81;5053954;28;20060;-53
2023/05/13 06:40:32;;;;;;;8.20;3.53;;;;;;;15.78;41.04;101876.81;5054314;28;20017;-53
2023/05/13 06:42:57;;;;;;;9.32;4.00;;;;;;;15.95;40.52;101871.50;5053912;28;20071;-53
2023/05/13 06:45:24;;;;;;;8.07;4.18;;;;;;;16.02;39.96;101873.84;5052134;28;20436;-53
2023/05/13 06:47:51;;;;;;;13.50;4.00;;;;;;;16.18;39.54;101872.13;5052414;28;20029;-53
2023/05/13 06:50:16;;;;;;;10.73;3.55;;;;;;;16.30;39.21;101871.50;5053254;28;20111;-54
2023/05/13 06:52:42;;;;;;;8.55;3.30;;;;;;;16.35;38.66;101873.94;5053754;28;20136;-53
2023/05/13 06:55:08;;;;;;;7.40;3.35;;;;;;;16.47;38.70;101867.94;5059429;28;20088;-55
2023/05/13 06:57:33;;;;;;;20.45;3.50;;;;;;;16.57;37.72;101870.13;5060265;28;20052;-53
2023/05/13 06:59:59;;;;;;;10.23;3.33;;;;;;;16.60;37.21;101868.16;5052803;28;20025;-55
2023/05/13 07:02:25;;;;;;;7.10;3.40;;;;;;;16.74;36.76;101869.22;5053580;28;20508;-54
2023/05/13 07:04:51;;;;;;;8.50;4.00;;;;;;;16.80;36.55;101864.41;5045881;28;20056;-54
2023/05/13 07:07:16;;;;;;;22.33;4.22;;;;;;;16.85;37.23;101864.19;5052741;28;20048;-54
2023/05/13 07:09:41;;;;;;;10.90;3.95;;;;;;;16.90;35.78;101862.13;5050717;28;20025;-55
2023/05/13 07:12:09;;;;;;;10.20;3.10;;;;;;;17.02;34.80;101863.28;5048605;28;20040;-54
2023/05/13 07:14:34;;;;;;;6.13;3.03;;;;;;;17.14;34.53;101856.38;5046187;28;20409;-55
2023/05/13 07:16:59;;;;;;;8.93;3.25;;;;;;;17.23;34.11;101861.22;5039656;28;20048;-54
2023/05/13 07:19:25;;;;;;;6.85;3.20;;;;;;;17.27;34.27;101852.06;5048793;28;20101;-54
2023/05/13 07:21:50;;;;;;;5.93;2.70;;;;;;;17.45;32.49;101836.81;5049626;28;20108;-53
2023/05/13 07:24:15;;;;;;;10.10;3.03;;;;;;;17.50;32.92;101842.75;5051747;28;20033;-53
2023/05/13 07:26:41;;;;;;;8.23;3.25;;;;;;;17.62;32.64;101846.50;5053178;28;20495;-52
2023/05/13 07:29:06;;;;;;;5.97;3.05;;;;;;;17.76;32.79;101843.91;5050186;28;20028;-53
2023/05/13 07:31:32;;;;;;;6.22;3.13;;;;;;;17.84;30.21;101834.59;5050529;28;20029;-53
2023/05/13 07:33:57;;;;;;;8.63;2.33;;;;;;;17.93;29.50;101850.09;5052526;28;20032;-55
2023/05/13 07:36:22;;;;;;;7.63;2.50;;;;;;;18.01;29.79;101837.13;5043126;28;20457;-55
2023/05/13 07:38:48;;;;;;;2.90;2.10;;;;;;;18.12;30.10;101836.50;5048537;28;20082;-55
2023/05/13 07:41:14;;;;;;;5.60;2.70;;;;;;;18.04;28.80;101828.91;5041184;28;20061;-55
2023/05/13 07:43:39;;;;;;;4.45;2.63;;;;;;;18.24;29.94;101834.88;5050407;28;20412;-53
2023/05/13 07:46:05;;;;;;;9.32;3.00;;;;;;;18.44;29.08;101828.28;5043683;28;20066;-53
2023/05/13 07:48:30;;;;;;;6.38;2.35;;;;;;;18.44;28.78;101834.53;5043341;28;20053;-54
2023/05/13 07:50:56;;;;;;;8.25;2.70;;;;;;;18.47;27.54;101828.09;5044793;28;20033;-52
2023/05/13 07:53:22;;;;;;;13.85;3.42;;;;;;;18.28;27.29;101823.03;5041162;28;20056;-56
2023/05/13 07:55:47;;;;;;;8.77;2.85;;;;;;;18.42;27.88;101823.06;5037619;28;20693;-55
2023/05/13 07:58:13;;;;;;;4.88;2.33;;;;;;;18.26;27.46;101819.56;5040746;28;20114;-55
2023/05/13 08:00:38;;;;;;;5.57;2.25;;;;;;;18.41;27.88;101824.00;5040957;28;20116;-55
2023/05/13 08:03:04;;;;;;;4.93;2.45;;;;;;;18.41;27.70;101813.31;5051091;28;20037;-55
2023/05/13 08:05:29;;;;;;;3.97;2.00;;;;;;;18.48;28.25;101819.13;5045622;28;20091;-55
2023/05/13 08:07:55;;;;;;;8.48;2.70;;;;;;;18.60;28.04;101828.22;5047615;28;20094;-54
2023/05/13 08:10:20;;;;;;;6.88;3.10;;;;;;;18.48;27.97;101819.97;5046046;28;20032;-53
2023/05/13 08:12:50;;;;;;;6.53;2.30;;;;;;;18.47;28.56;101826.31;5041849;28;20017;-56
2023/05/13 08:15:16;;;;;;;3.75;2.13;;;;;;;18.49;28.32;101819.03;5039673;28;20017;-55
2023/05/13 08:17:42;;;;;;;7.60;2.67;;;;;;;18.67;28.69;101832.25;5052008;28;20112;-55
2023/05/13 08:20:07;;;;;;;6.75;2.60;;;;;;;18.65;29.20;101831.44;5050257;28;20100;-55
2023/05/13 08:22:33;;;;;;;5.70;2.20;;;;;;;18.91;28.41;101837.03;5042883;28;20079;-56
2023/05/13 08:24:59;;;;;;;6.80;3.03;;;;;;;18.79;28.75;101839.47;5046247;28;20536;-54
2023/05/13 08:27:25;;;;;;;7.20;2.47;;;;;;;18.88;29.14;101838.94;5051578;28;20021;-54
2023/05/13 08:29:50;;;;;;;6.22;2.97;;;;;;;18.73;29.24;101834.50;5051800;28;20110;-54
2023/05/13 08:32:16;;;;;;;8.30;2.80;;;;;;;19.00;29.76;101836.44;5052502;28;20100;-55
2023/05/13 08:34:42;;;;;;;5.13;2.67;;;;;;;19.11;30.06;101836.63;5050680;28;20036;-55
2023/05/13 08:37:07;;;;;;;8.77;2.80;;;;;;;19.18;29.98;101835.25;5046818;28;20053;-54
2023/05/13 08:39:33;;;;;;;10.48;2.95;;;;;;;19.10;29.45;101842.91;5045578;28;20062;-53
2023/05/13 08:42:01;;;;;;;9.00;2.83;;;;;;;19.24;29.44;101832.19;5045154;28;20112;-54
2023/05/13 08:44:28;;;;;;;10.82;2.85;;;;;;;19.31;28.89;101845.19;5049971;28;20449;-54
2023/05/13 08:47:06;;;;;;;6.95;2.47;;;;;;;19.25;29.03;101841.91;5044501;28;20056;-55
2023/05/13 08:49:33;;;;;;;11.07;3.55;;;;;;;19.41;29.55;101849.81;5047368;28;20043;-55
2023/05/13 08:51:58;;;;;;;3.88;2.50;;;;;;;19.47;29.33;101848.56;5041564;28;20080;-54
2023/05/13 08:54:25;;;;;;;9.82;2.72;;;;;;;19.42;29.27;101848.03;5043584;28;20112;-55
2023/05/13 08:56:50;;;;;;;10.27;2.78;;;;;;;19.19;29.90;101846.81;5047090;28;20161;-55
2023/05/13 08:59:17;;;;;;;6.97;3.65;;;;;;;19.36;29.79;101854.63;5048547;28;20151;-54
2023/05/13 09:01:43;;;;;;;6.07;2.13;;;;;;;19.21;29.58;101848.44;5038389;28;20032;-53
2023/05/13 09:04:10;;;;;;;6.35;3.35;;;;;;;19.43;30.19;101847.03;5050343;28;20021;-53
2023/05/13 09:06:35;;;;;;;6.97;2.85;;;;;;;19.53;30.01;101837.41;5044571;28;20079;-55
2023/05/13 09:09:01;;;;;;;5.88;3.33;;;;;;;19.56;29.95;101834.53;5048165;28;20024;-53
2023/05/13 09:11:27;;;;;;;10.25;3.05;;;;;;;19.66;29.86;101839.28;5045762;28;20045;-54
2023/05/13 09:13:57;;;;;;;9.48;2.65;;;;;;;19.64;30.15;101831.34;5052285;28;20075;-53
2023/05/13 09:16:23;;;;;;;8.75;2.50;;;;;;;19.84;29.55;101838.06;5049908;28;20037;-55
2023/05/13 09:18:48;;;;;;;9.13;3.72;;;;;;;19.76;29.34;101837.75;5062113;28;20021;-54
2023/05/13 09:21:31;;;;;;;5.45;2.53;;;;;;;20.08;28.69;101834.69;5055039;28;20441;-54
2023/05/13 09:24:17;;;;;;;6.68;2.95;;;;;;;19.95;29.24;101835.53;5048435;28;20017;-54
2023/05/13 09:26:44;;;;;;;7.47;3.00;;;;;;;20.10;28.19;101827.41;5049652;28;20035;-55
2023/05/13 09:29:14;;;;;;;5.80;2.50;;;;;;;19.96;28.50;101831.88;5043981;28;20468;-53
2023/05/13 09:31:40;;;;;;;9.77;3.03;;;;;;;20.07;29.19;101825.78;5049677;28;20038;-53
2023/05/13 09:34:05;;;;;;;6.25;2.65;;;;;;;20.09;28.85;101822.97;5051416;28;20021;-53
2023/05/13 09:36:31;;;;;;;14.98;3.33;;;;;;;20.14;29.13;101834.28;5048184;28;20036;-52
2023/05/13 09:38:57;;;;;;;5.35;2.47;;;;;;;20.21;28.80;101829.34;5043440;28;54100;-53
2023/05/13 09:41:25;;;;;;;11.07;3.08;;;;;;;20.42;28.75;101821.63;5051070;28;20045;-54
2023/05/13 09:47:13;;;;;;;8.73;2.55;;;;;;;20.52;28.39;101833.41;5076264;27;53950;-57
2023/05/13 09:49:41;;;;;;;7.47;2.78;;;;;;;20.34;28.39;101825.69;5083314;27;56523;-57
2023/05/13 09:52:11;;;;;;;8.82;3.05;;;;;;;20.52;28.26;101833.41;5083640;28;20059;-57
2023/05/13 09:54:38;;;;;;;7.60;2.75;;;;;;;20.32;28.21;101832.16;5079876;28;20052;-56
2023/05/13 09:57:05;;;;;;;11.63;3.38;;;;;;;20.42;27.68;101830.53;5081110;28;20048;-58
2023/05/13 09:59:37;;;;;;;6.93;2.33;;;;;;;20.62;26.38;101821.03;5084330;28;20052;-58
2023/05/13 10:02:06;;;;;;;5.25;2.30;;;;;;;20.74;25.67;101823.84;5060483;28;20121;-57
2023/05/13 10:04:32;;;;;;;8.70;3.38;;;;;;;20.50;25.93;101808.50;5090000;28;20557;-58
2023/05/13 10:07:02;;;;;;;10.70;2.53;;;;;;;20.83;25.63;101809.78;5084177;28;20048;-56
2023/05/13 10:09:34;;;;;;;4.88;2.60;;;;;;;21.04;25.43;101808.19;5083534;28;20373;-53
2023/05/13 10:12:02;;;;;;;5.80;2.67;;;;;;;21.15;24.98;101809.22;5079923;28;20114;-55
2023/05/13 10:14:29;;;;;;;6.13;2.42;;;;;;;21.13;24.02;101827.31;5082136;28;20056;-55
2023/05/13 10:16:57;;;;;;;12.48;2.25;;;;;;;21.24;23.90;101808.56;5076663;28;20048;-54
2023/05/13 10:19:25;;;;;;;10.32;2.67;;;;;;;20.96;23.84;101805.22;5083783;28;20048;-54
2023/05/13 10:21:53;;;;;;;4.25;2.58;;;;;;;21.17;24.17;101818.03;5085189;28;20139;-55
2023/05/13 10:24:21;;;;;;;6.50;2.28;;;;;;;21.43;23.75;101803.53;5076883;28;20051;-54
2023/05/13 10:26:51;;;;;;;5.88;2.00;;;;;;;21.38;23.47;101815.59;5074921;28;20047;-55
2023/05/13 10:29:18;;;;;;;8.10;2.83;;;;;;;21.79;23.35;101804.44;5085251;28;20057;-54
2023/05/13 10:31:46;;;;;;;8.52;2.47;;;;;;;21.54;23.28;101788.44;5079138;28;20048;-55
2023/05/13 10:34:13;;;;;;;5.32;2.22;;;;;;;21.73;23.45;101802.19;5077880;28;20155;-55
2023/05/13 10:36:54;;;;;;;7.03;2.72;;;;;;;21.90;23.15;101810.81;5076450;28;20067;-55
2023/05/13 10:39:43;;;;;;;7.60;2.60;;;;;;;21.43;22.39;101800.84;5083084;28;20428;-55
2023/05/13 10:42:15;;;;;;;15.70;7.93;;;;;;;21.93;22.57;101807.88;5084997;28;20052;-54
2023/05/13 10:44:41;;;;;;;6.28;2.10;;;;;;;22.41;21.42;101810.44;5083604;28;20456;-55
2023/05/13 10:47:09;;;;;;;7.68;2.30;;;;;;;22.58;21.36;101808.25;5056329;28;20049;-56
2023/05/13 10:49:36;;;;;;;9.77;3.38;;;;;;;22.77;20.89;101816.56;5052988;28;20073;-55
2023/05/13 10:52:07;;;;;;;5.88;2.50;;;;;;;23.84;20.59;101797.88;5060864;28;20056;-55
2023/05/13 10:54:38;;;;;;;5.15;2.63;;;;;;;24.45;19.50;101815.13;5059486;28;20652;-55
2023/05/13 10:57:05;;;;;;;7.30;2.40;;;;;;;24.16;20.03;101803.19;5057029;28;20041;-55
2023/05/13 10:59:34;;;;;;;6.75;3.00;;;;;;;23.91;20.05;101798.19;5048946;28;20092;-56
2023/05/13 11:02:02;;;;;;;5.05;2.00;;;;;;;23.25;21.54;101797.38;5048150;28;20597;-54
2023/05/13 11:04:30;;;;;;;4.50;2.08;;;;;;;23.62;20.72;101806.88;5054285;28;20385;-55
2023/05/13 11:07:14;;;;;;;6.85;2.95;;;;;;;24.07;20.14;101800.44;5038063;28;20061;-54
2023/05/13 11:09:47;;;;;;;9.35;2.53;;;;;;;24.34;20.11;101802.56;5045020;28;20161;-55
2023/05/13 11:12:14;;;;;;;7.90;3.42;;;;;;;25.38;18.54;101796.94;5047654;28;20056;-56
2023/05/13 11:14:43;;;;;;;6.05;1.98;;;;;;;26.71;17.48;101802.38;5053799;28;20087;-56
2023/05/13 11:17:11;;;;;;;5.00;2.35;;;;;;;28.14;16.13;101788.97;5052932;28;20047;-55
2023/05/13 11:19:47;;;;;;;4.68;2.33;;;;;;;27.91;16.61;101805.75;5047572;28;20052;-55
2023/05/13 11:22:17;;;;;;;9.27;2.78;;;;;;;27.14;15.48;101801.81;5048961;28;20067;-55